Time;durP1;ratioP1;P1;durP2;ratioP2;P2;SDS_P1;SDS_P2;PMS_P1;PMS_P2;Temp;Humidity;BMP_temperature;BMP_pressure;BME280_temperature;BME280_humidity;BME280_pressure;Samples;Min_cycle;Max_cycle;Signal;HPM_P1;HPM_P2
2021/05/15 00:00:29;;;;;;;12.88;7.61;;;;;;;;;;360182;147;857402;-58
2021/05/15 00:01:31;;;;;;;17.36;8.72;;;;;;;;;;359639;147;858638;-61
2021/05/15 00:02:33;;;;;;;12.39;7.72;;;;;;;;;;359745;147;858545;-59
2021/05/15 00:03:34;;;;;;;10.65;7.27;;;;;;;;;;361239;147;866538;-59
2021/05/15 00:04:36;;;;;;;10.96;7.32;;;;;;;;;;359341;147;858809;-59
2021/05/15 00:05:37;;;;;;;11.16;6.75;;;;;;;;;;358510;149;865823;-59
2021/05/15 00:06:41;;;;;;;9.98;6.61;;;;;;;;;;358519;147;858596;-59
2021/05/15 00:07:42;;;;;;;12.43;6.39;;;;;;;;;;358584;147;858220;-59
2021/05/15 00:08:44;;;;;;;11.92;5.90;;;;;;;;;;359194;149;865485;-59
2021/05/15 00:09:46;;;;;;;10.67;6.73;;;;;;;;;;357582;148;865040;-59
2021/05/15 00:10:48;;;;;;;10.09;6.30;;;;;;;;;;356936;150;857415;-60
2021/05/15 00:11:50;;;;;;;9.60;6.51;;;;;;;;;;360575;147;857342;-60
2021/05/15 00:12:52;;;;;;;12.09;6.36;;;;;;;;;;358715;148;857296;-59
2021/05/15 00:13:54;;;;;;;9.17;5.65;;;;;;;;;;357606;150;858806;-59
2021/05/15 00:14:56;;;;;;;10.23;6.73;;;;;;;;;;358512;147;858447;-59
2021/05/15 00:15:58;;;;;;;10.74;6.89;;;;;;;;;;358689;148;857406;-59
2021/05/15 00:17:01;;;;;;;10.69;6.74;;;;;;;;;;359543;148;857895;-59
2021/05/15 00:18:02;;;;;;;8.99;6.41;;;;;;;;;;358550;147;865041;-59
2021/05/15 00:19:04;;;;;;;11.21;6.56;;;;;;;;;;358390;148;857186;-59
2021/05/15 00:20:10;;;;;;;12.58;6.90;;;;;;;;;;358872;148;866311;-59
2021/05/15 00:21:11;;;;;;;10.08;6.82;;;;;;;;;;357795;148;857825;-59
2021/05/15 00:22:13;;;;;;;12.11;6.64;;;;;;;;;;357810;148;858841;-59
2021/05/15 00:23:15;;;;;;;10.99;6.29;;;;;;;;;;356187;147;865489;-60
2021/05/15 00:24:16;;;;;;;10.46;6.79;;;;;;;;;;357997;148;858448;-59
2021/05/15 00:25:18;;;;;;;14.09;7.04;;;;;;;;;;356509;150;858209;-60
2021/05/15 00:26:21;;;;;;;13.79;6.78;;;;;;;;;;357530;148;857522;-60
2021/05/15 00:27:23;;;;;;;13.22;6.36;;;;;;;;;;356819;150;859567;-60
2021/05/15 00:28:25;;;;;;;19.84;7.02;;;;;;;;;;357577;148;859669;-61
2021/05/15 00:29:26;;;;;;;20.77;8.32;;;;;;;;;;357242;149;857283;-61
2021/05/15 00:30:28;;;;;;;16.18;7.56;;;;;;;;;;354770;148;857187;-61
2021/05/15 00:31:29;;;;;;;14.61;7.08;;;;;;;;;;355822;147;864983;-61
2021/05/15 00:32:31;;;;;;;23.59;7.86;;;;;;;;;;353728;150;857220;-61
2021/05/15 00:33:33;;;;;;;14.01;6.90;;;;;;;;;;356459;150;866020;-61
2021/05/15 00:34:34;;;;;;;17.46;7.08;;;;;;;;;;356212;148;857837;-61
2021/05/15 00:35:36;;;;;;;16.66;7.07;;;;;;;;;;356588;149;859963;-61
2021/05/15 00:36:38;;;;;;;15.79;6.33;;;;;;;;;;355992;149;859925;-61
2021/05/15 00:37:39;;;;;;;17.11;6.73;;;;;;;;;;356683;148;860346;-61
2021/05/15 00:38:41;;;;;;;13.22;7.15;;;;;;;;;;351619;150;858379;-60
2021/05/15 00:39:43;;;;;;;13.52;6.83;;;;;;;;;;356032;148;865079;-60
2021/05/15 00:40:45;;;;;;;10.25;6.61;;;;;;;;;;356547;149;857340;-60
2021/05/15 00:41:46;;;;;;;12.74;6.98;;;;;;;;;;354742;152;857359;-60
2021/05/15 00:42:48;;;;;;;11.31;6.66;;;;;;;;;;355182;149;866708;-61
2021/05/15 00:44:11;;;;;;;15.56;7.10;;;;;;;;;;357227;149;866373;-60
2021/05/15 00:45:03;;;;;;;11.01;6.42;;;;;;;;;;357442;150;858944;-60
2021/05/15 00:46:04;;;;;;;12.27;6.80;;;;;;;;;;353896;149;858142;-60
2021/05/15 00:47:06;;;;;;;12.68;7.36;;;;;;;;;;355957;150;866075;-60
2021/05/15 00:48:08;;;;;;;12.93;6.30;;;;;;;;;;355280;149;858828;-60
2021/05/15 00:49:09;;;;;;;16.79;6.91;;;;;;;;;;360926;148;858821;-60
2021/05/15 00:50:11;;;;;;;15.54;7.11;;;;;;;;;;360756;148;865086;-60
2021/05/15 00:51:13;;;;;;;15.69;6.97;;;;;;;;;;356588;148;864993;-61
2021/05/15 00:52:14;;;;;;;13.20;7.13;;;;;;;;;;356238;149;865199;-60
2021/05/15 00:53:17;;;;;;;13.01;6.64;;;;;;;;;;355767;148;857524;-60
2021/05/15 00:54:19;;;;;;;14.26;6.97;;;;;;;;;;357088;148;859029;-60
2021/05/15 00:55:20;;;;;;;16.24;6.54;;;;;;;;;;351729;150;866167;-60
2021/05/15 00:56:22;;;;;;;16.07;7.42;;;;;;;;;;357655;148;856447;-60
2021/05/15 00:57:23;;;;;;;10.08;6.52;;;;;;;;;;357128;150;865192;-60
2021/05/15 00:58:25;;;;;;;10.66;6.96;;;;;;;;;;357088;149;857711;-60
2021/05/15 00:59:27;;;;;;;11.16;6.01;;;;;;;;;;356133;148;857366;-60
2021/05/15 01:00:29;;;;;;;13.11;6.69;;;;;;;;;;354481;148;859307;-60
2021/05/15 01:01:31;;;;;;;9.61;6.20;;;;;;;;;;356488;149;859165;-60
2021/05/15 01:02:33;;;;;;;12.15;6.33;;;;;;;;;;357134;148;859945;-61
2021/05/15 01:03:34;;;;;;;10.26;6.06;;;;;;;;;;356195;150;857277;-60
2021/05/15 01:04:36;;;;;;;9.39;6.29;;;;;;;;;;355339;148;857266;-60
2021/05/15 01:05:38;;;;;;;10.82;6.43;;;;;;;;;;352074;148;857381;-60
2021/05/15 01:06:40;;;;;;;11.98;5.88;;;;;;;;;;355879;148;857494;-60
2021/05/15 01:07:45;;;;;;;12.85;6.62;;;;;;;;;;356105;149;857897;-60
2021/05/15 01:08:47;;;;;;;7.93;5.87;;;;;;;;;;355464;148;858501;-60
2021/05/15 01:09:48;;;;;;;11.57;5.81;;;;;;;;;;358412;148;857823;-60
2021/05/15 01:10:50;;;;;;;10.42;5.99;;;;;;;;;;356307;149;865405;-60
2021/05/15 01:11:51;;;;;;;10.61;6.25;;;;;;;;;;355848;150;865051;-60
2021/05/15 01:12:54;;;;;;;11.86;5.91;;;;;;;;;;356715;148;857410;-60
2021/05/15 01:13:57;;;;;;;10.26;5.63;;;;;;;;;;361880;148;857386;-60
2021/05/15 01:14:59;;;;;;;9.92;6.47;;;;;;;;;;353349;148;857466;-60
2021/05/15 01:16:00;;;;;;;9.78;5.96;;;;;;;;;;356521;149;856329;-60
2021/05/15 01:17:02;;;;;;;9.18;5.61;;;;;;;;;;357774;150;863877;-60
2021/05/15 01:18:04;;;;;;;10.94;6.07;;;;;;;;;;357811;148;856144;-60
2021/05/15 01:19:06;;;;;;;11.41;6.13;;;;;;;;;;356765;149;864303;-60
2021/05/15 01:20:08;;;;;;;10.07;5.87;;;;;;;;;;359932;149;863975;-60
2021/05/15 01:21:10;;;;;;;10.99;6.02;;;;;;;;;;356480;148;856343;-60
2021/05/15 01:24:06;;;;;;;13.64;6.29;;;;;;;14.16;61.35;98972.17;370182;142;880951;-61
2021/05/15 01:25:09;;;;;;;9.69;6.37;;;;;;;14.16;61.35;98972.17;361443;144;858680;-61
2021/05/15 01:26:28;;;;;;;11.41;6.66;;;;;;;14.02;61.65;98977.89;361113;145;865019;-60
2021/05/15 01:27:30;;;;;;;12.10;6.31;;;;;;;14.00;61.79;98977.10;364259;145;857333;-61
2021/05/15 01:28:32;;;;;;;9.11;6.69;;;;;;;14.00;62.01;98984.08;361179;147;857263;-61
2021/05/15 01:29:34;;;;;;;12.68;6.93;;;;;;;13.99;62.16;98980.61;363388;145;868227;-62
2021/05/15 01:30:36;;;;;;;11.17;6.34;;;;;;;;;;361655;147;865878;-61
2021/05/15 01:31:38;;;;;;;10.86;6.31;;;;;;;;;;359740;146;857664;-61
2021/05/15 01:32:43;;;;;;;11.99;6.89;;;;;;;;;;363464;145;859067;-59
2021/05/15 01:33:45;;;;;;;11.13;6.78;;;;;;;;;;362892;147;858801;-61
2021/05/15 01:34:46;;;;;;;17.26;6.98;;;;;;;;;;363117;145;859469;-61
2021/05/15 01:35:48;;;;;;;10.87;7.11;;;;;;;;;;360361;147;865098;-61
2021/05/15 01:36:50;;;;;;;16.23;7.74;;;;;;;;;;355354;148;865685;-61
2021/05/15 01:37:53;;;;;;;15.77;8.06;;;;;;;;;;359407;147;866386;-61
2021/05/15 01:38:55;;;;;;;12.10;7.41;;;;;;;;;;364823;147;860856;-61
2021/05/15 01:39:56;;;;;;;17.36;7.73;;;;;;;;;;362488;145;857186;-61
2021/05/15 01:41:03;;;;;;;16.68;6.77;;;;;;;;;;362621;145;858538;-61
2021/05/15 01:42:05;;;;;;;14.80;7.57;;;;;;;;;;361226;145;864990;-61
2021/05/15 01:43:06;;;;;;;11.49;6.86;;;;;;;;;;357425;149;858685;-61
2021/05/15 01:44:08;;;;;;;7.48;6.29;;;;;;;;;;358017;148;865109;-61
2021/05/15 01:45:10;;;;;;;9.31;6.74;;;;;;;;;;358895;148;859510;-61
2021/05/15 01:46:13;;;;;;;11.00;7.12;;;;;;;;;;357876;147;859570;-61
2021/05/15 01:47:14;;;;;;;10.45;6.43;;;;;;;;;;359457;148;858190;-61
2021/05/15 01:48:16;;;;;;;10.21;6.89;;;;;;;;;;356178;147;857553;-61
2021/05/15 01:49:19;;;;;;;9.22;6.15;;;;;;;;;;358292;147;859247;-61
2021/05/15 01:50:22;;;;;;;9.36;6.20;;;;;;;;;;359160;148;859266;-61
2021/05/15 01:51:24;;;;;;;9.56;6.06;;;;;;;;;;353194;151;859060;-61
2021/05/15 01:52:25;;;;;;;10.19;6.99;;;;;;;;;;353097;147;861160;-60
2021/05/15 01:53:27;;;;;;;10.61;6.71;;;;;;;;;;359143;148;859367;-61
2021/05/15 01:54:29;;;;;;;10.05;6.59;;;;;;;;;;357949;147;859070;-61
2021/05/15 01:55:30;;;;;;;9.31;6.97;;;;;;;;;;358634;149;857274;-61
2021/05/15 01:56:33;;;;;;;10.90;6.62;;;;;;;;;;355680;148;857297;-62
2021/05/15 01:57:35;;;;;;;8.34;6.50;;;;;;;;;;357794;147;857363;-62
2021/05/15 01:58:36;;;;;;;10.99;6.69;;;;;;;;;;357169;148;858696;-61
2021/05/15 01:59:40;;;;;;;12.47;6.78;;;;;;;;;;357527;147;859100;-61
2021/05/15 02:00:42;;;;;;;9.38;6.59;;;;;;;;;;359776;148;857890;-61
2021/05/15 02:01:43;;;;;;;9.38;6.00;;;;;;;;;;359482;150;858367;-61
2021/05/15 02:02:45;;;;;;;7.38;5.99;;;;;;;;;;358601;147;857739;-61
2021/05/15 02:03:47;;;;;;;11.62;6.25;;;;;;;;;;359301;149;857307;-61
2021/05/15 02:04:48;;;;;;;11.18;6.29;;;;;;;;;;358984;148;857695;-62
2021/05/15 02:05:50;;;;;;;9.35;6.36;;;;;;;;;;358829;148;866864;-62
2021/05/15 02:06:55;;;;;;;9.44;6.44;;;;;;;;;;359498;148;859047;-62
2021/05/15 02:07:56;;;;;;;8.30;6.27;;;;;;;;;;358544;147;857252;-62
2021/05/15 02:08:58;;;;;;;10.14;6.50;;;;;;;;;;359044;149;857403;-61
2021/05/15 02:10:00;;;;;;;8.17;6.11;;;;;;;;;;359317;150;865147;-61
2021/05/15 02:11:02;;;;;;;12.87;6.74;;;;;;;;;;358530;147;857783;-61
2021/05/15 02:12:04;;;;;;;9.77;6.06;;;;;;;;;;358895;149;865208;-62
2021/05/15 02:13:05;;;;;;;9.59;6.33;;;;;;;;;;359168;147;857705;-61
2021/05/15 02:14:07;;;;;;;10.11;6.49;;;;;;;;;;358039;147;857819;-61
2021/05/15 02:15:09;;;;;;;7.41;6.10;;;;;;;;;;360871;148;857389;-61
2021/05/15 02:16:11;;;;;;;10.82;7.03;;;;;;;;;;359039;148;857876;-61
2021/05/15 02:17:12;;;;;;;7.96;6.21;;;;;;;;;;359410;150;858706;-62
2021/05/15 02:18:14;;;;;;;8.82;6.57;;;;;;;;;;359391;149;865637;-62
2021/05/15 02:19:16;;;;;;;10.18;6.57;;;;;;;;;;360953;141;856763;-59
2021/05/15 02:20:19;;;;;;;9.71;6.56;;;;;;;;;;371700;142;857373;-60
2021/05/15 02:21:21;;;;;;;9.59;6.83;;;;;;;;;;368792;143;857315;-60
2021/05/15 02:24:13;;;;;;;11.87;6.19;;;;;;;13.49;64.33;98988.52;373398;142;881332;-61
2021/05/15 02:25:15;;;;;;;8.71;6.54;;;;;;;13.49;64.33;98988.52;362833;147;859216;-61
2021/05/15 02:26:19;;;;;;;8.65;6.65;;;;;;;13.41;64.30;98994.80;362712;145;865168;-61
2021/05/15 02:27:21;;;;;;;9.19;6.15;;;;;;;13.41;64.15;98994.80;363702;145;857365;-61
2021/05/15 02:28:22;;;;;;;10.21;6.34;;;;;;;;;;366126;145;859106;-61
2021/05/15 02:29:24;;;;;;;10.29;5.83;;;;;;;;;;364371;145;867257;-61
2021/05/15 02:30:27;;;;;;;8.85;6.17;;;;;;;;;;364688;145;859261;-61
2021/05/15 02:31:29;;;;;;;9.03;6.42;;;;;;;;;;365637;145;857700;-61
2021/05/15 02:32:31;;;;;;;12.09;6.39;;;;;;;;;;366299;145;858388;-61
2021/05/15 02:33:32;;;;;;;8.84;6.24;;;;;;;;;;364191;146;864936;-62
2021/05/15 02:34:34;;;;;;;10.80;6.79;;;;;;;;;;361697;147;857267;-62
2021/05/15 02:35:35;;;;;;;15.62;6.63;;;;;;;;;;363473;145;857268;-61
2021/05/15 02:36:38;;;;;;;12.86;6.19;;;;;;;;;;364673;147;858610;-61
2021/05/15 02:37:39;;;;;;;10.98;6.16;;;;;;;;;;364713;145;860790;-61
2021/05/15 02:38:41;;;;;;;10.86;6.22;;;;;;;;;;365898;145;859422;-61
2021/05/15 02:39:42;;;;;;;7.85;5.91;;;;;;;;;;361124;147;858383;-61
2021/05/15 02:40:46;;;;;;;8.39;6.22;;;;;;;;;;363772;145;865073;-61
2021/05/15 02:41:47;;;;;;;10.06;6.39;;;;;;;;;;363288;147;857344;-62
2021/05/15 02:42:50;;;;;;;11.00;6.26;;;;;;;;;;363945;144;857371;-62
2021/05/15 02:43:52;;;;;;;9.06;6.22;;;;;;;;;;363029;144;857805;-62
2021/05/15 02:44:53;;;;;;;8.13;6.17;;;;;;;;;;364667;145;862103;-61
2021/05/15 02:45:55;;;;;;;9.36;6.43;;;;;;;;;;365874;144;861517;-61
2021/05/15 02:46:56;;;;;;;10.66;5.86;;;;;;;;;;364003;144;857358;-61
2021/05/15 02:47:58;;;;;;;8.26;6.26;;;;;;;;;;364589;145;865123;-61
2021/05/15 02:49:00;;;;;;;10.34;5.77;;;;;;;;;;363364;144;865226;-61
2021/05/15 02:50:02;;;;;;;9.76;5.90;;;;;;;;;;363877;145;857241;-61
2021/05/15 02:51:04;;;;;;;11.73;6.21;;;;;;;;;;372201;144;857666;-61
2021/05/15 02:52:06;;;;;;;10.08;6.57;;;;;;;;;;363739;144;857518;-61
2021/05/15 02:53:07;;;;;;;10.00;6.46;;;;;;;;;;363017;148;857287;-61
2021/05/15 02:54:09;;;;;;;10.74;6.19;;;;;;;;;;367841;143;857306;-58
2021/05/15 02:55:11;;;;;;;9.74;5.86;;;;;;;;;;357972;148;857616;-61
2021/05/15 02:56:13;;;;;;;8.49;6.16;;;;;;;;;;355235;150;857503;-61
2021/05/15 02:57:15;;;;;;;8.26;6.09;;;;;;;;;;354493;148;857585;-61
2021/05/15 02:58:17;;;;;;;9.01;6.14;;;;;;;;;;358110;147;858480;-61
2021/05/15 02:59:18;;;;;;;9.01;5.93;;;;;;;;;;353766;149;865721;-61
2021/05/15 03:00:24;;;;;;;10.59;6.13;;;;;;;;;;355300;148;865584;-61
2021/05/15 03:01:26;;;;;;;10.82;6.47;;;;;;;;;;355943;147;857350;-61
2021/05/15 03:02:28;;;;;;;9.12;6.18;;;;;;;;;;353973;149;857826;-61
2021/05/15 03:03:29;;;;;;;10.46;6.51;;;;;;;;;;353309;149;865928;-61
2021/05/15 03:04:31;;;;;;;9.85;6.51;;;;;;;;;;353740;150;859449;-61
2021/05/15 03:05:32;;;;;;;10.51;6.08;;;;;;;;;;353048;150;858259;-62
2021/05/15 03:06:34;;;;;;;8.41;6.37;;;;;;;;;;356916;150;865031;-61
2021/05/15 03:07:36;;;;;;;8.77;6.11;;;;;;;;;;357366;149;857297;-61
2021/05/15 03:08:37;;;;;;;9.88;6.41;;;;;;;;;;355874;148;857488;-61
2021/05/15 03:09:39;;;;;;;10.66;6.34;;;;;;;;;;355993;148;857503;-61
2021/05/15 03:10:42;;;;;;;8.83;6.41;;;;;;;;;;354826;149;857828;-61
2021/05/15 03:11:44;;;;;;;9.36;6.22;;;;;;;;;;356341;148;858790;-61
2021/05/15 03:12:45;;;;;;;11.09;6.14;;;;;;;;;;357538;150;858001;-61
2021/05/15 03:13:47;;;;;;;13.19;7.36;;;;;;;;;;356573;148;857282;-61
2021/05/15 03:14:49;;;;;;;12.44;8.24;;;;;;;;;;354927;150;858973;-62
2021/05/15 03:15:50;;;;;;;13.20;7.67;;;;;;;;;;355960;150;859381;-61
2021/05/15 03:16:52;;;;;;;9.82;6.49;;;;;;;;;;354854;149;859441;-61
2021/05/15 03:17:55;;;;;;;12.07;6.81;;;;;;;;;;354721;149;865022;-62
2021/05/15 03:18:57;;;;;;;10.10;6.81;;;;;;;;;;355673;150;857420;-61
2021/05/15 03:19:59;;;;;;;11.29;7.05;;;;;;;;;;354451;148;859824;-61
2021/05/15 03:21:00;;;;;;;10.54;6.44;;;;;;;;;;355059;150;857518;-61
2021/05/15 03:22:02;;;;;;;10.58;6.50;;;;;;;;;;358295;149;857361;-62
2021/05/15 03:23:04;;;;;;;9.96;6.65;;;;;;;;;;355130;148;859770;-61
2021/05/15 03:24:06;;;;;;;11.79;6.64;;;;;;;;;;354069;148;865436;-61
2021/05/15 03:25:09;;;;;;;10.95;6.45;;;;;;;;;;354612;150;857343;-61
2021/05/15 03:26:12;;;;;;;9.15;6.27;;;;;;;;;;354851;150;865927;-61
2021/05/15 03:27:14;;;;;;;7.67;5.21;;;;;;;;;;357024;150;859394;-62
2021/05/15 03:28:15;;;;;;;7.64;5.61;;;;;;;;;;356286;149;857467;-60
2021/05/15 03:29:17;;;;;;;8.85;6.38;;;;;;;;;;356406;148;859146;-61
2021/05/15 03:30:21;;;;;;;10.34;5.96;;;;;;;;;;352337;148;857463;-61
2021/05/15 03:31:23;;;;;;;10.10;6.08;;;;;;;;;;354872;149;857393;-61
2021/05/15 03:32:24;;;;;;;6.99;5.44;;;;;;;;;;356616;149;858842;-60
2021/05/15 03:33:26;;;;;;;7.74;5.95;;;;;;;;;;355994;150;858574;-60
2021/05/15 03:34:27;;;;;;;10.94;5.51;;;;;;;;;;354485;150;857283;-60
2021/05/15 03:35:31;;;;;;;11.79;5.55;;;;;;;;;;356424;148;864997;-61
2021/05/15 03:36:33;;;;;;;7.83;4.89;;;;;;;;;;356112;150;858992;-61
2021/05/15 03:37:35;;;;;;;8.73;5.21;;;;;;;;;;356411;148;865980;-61
2021/05/15 03:38:36;;;;;;;8.47;5.81;;;;;;;;;;354392;148;857751;-60
2021/05/15 03:39:38;;;;;;;8.49;5.04;;;;;;;;;;355165;149;857793;-61
2021/05/15 03:40:40;;;;;;;10.73;5.80;;;;;;;;;;348865;151;859974;-61
2021/05/15 03:41:42;;;;;;;8.58;5.69;;;;;;;;;;341112;153;857429;-61
2021/05/15 03:42:47;;;;;;;5.70;4.60;;;;;;;;;;349690;151;865078;-61
2021/05/15 03:43:47;;;;;;;8.11;5.04;;;;;;;;;;356462;148;857352;-61
2021/05/15 03:44:49;;;;;;;8.40;5.57;;;;;;;;;;357079;150;857322;-61
2021/05/15 03:45:53;;;;;;;6.71;4.86;;;;;;;;;;356956;148;857780;-61
2021/05/15 03:46:55;;;;;;;8.78;5.31;;;;;;;;;;357241;148;858804;-61
2021/05/15 03:47:56;;;;;;;6.79;5.24;;;;;;;;;;356723;149;858304;-61
2021/05/15 03:48:58;;;;;;;6.49;4.57;;;;;;;;;;356631;148;857432;-61
2021/05/15 03:49:59;;;;;;;6.66;4.89;;;;;;;;;;356218;148;857382;-61
2021/05/15 03:51:01;;;;;;;7.02;4.26;;;;;;;;;;356071;149;857348;-61
2021/05/15 03:52:03;;;;;;;7.26;4.23;;;;;;;;;;355382;150;857195;-61
2021/05/15 03:53:05;;;;;;;6.09;4.45;;;;;;;;;;357512;148;858972;-61
2021/05/15 03:54:07;;;;;;;6.65;3.96;;;;;;;;;;357920;149;859367;-62
2021/05/15 03:55:09;;;;;;;7.67;3.58;;;;;;;;;;355609;149;857383;-59
2021/05/15 03:56:11;;;;;;;4.59;3.98;;;;;;;;;;355125;148;864897;-61
2021/05/15 03:57:13;;;;;;;7.91;3.69;;;;;;;;;;355629;149;857920;-61
2021/05/15 03:58:15;;;;;;;6.46;4.04;;;;;;;;;;355897;148;857556;-61
2021/05/15 03:59:16;;;;;;;5.03;3.88;;;;;;;;;;357108;148;865034;-61
2021/05/15 04:00:19;;;;;;;5.72;3.55;;;;;;;;;;355380;148;857553;-61
2021/05/15 04:01:21;;;;;;;5.45;3.66;;;;;;;;;;355904;148;859191;-60
2021/05/15 04:02:23;;;;;;;6.20;3.99;;;;;;;;;;353155;150;858648;-60
2021/05/15 04:03:25;;;;;;;4.93;3.93;;;;;;;;;;353868;150;859044;-60
2021/05/15 04:04:26;;;;;;;4.05;3.34;;;;;;;;;;354022;149;857955;-60
2021/05/15 04:05:28;;;;;;;6.09;3.61;;;;;;;;;;356467;148;865308;-60
2021/05/15 04:06:30;;;;;;;4.59;3.18;;;;;;;;;;355034;150;857326;-60
2021/05/15 04:07:32;;;;;;;6.35;4.22;;;;;;;;;;355110;149;858952;-61
2021/05/15 04:08:33;;;;;;;4.19;3.34;;;;;;;;;;356209;150;858113;-61
2021/05/15 04:09:35;;;;;;;3.86;3.28;;;;;;;;;;354501;150;857284;-60
2021/05/15 04:10:38;;;;;;;4.58;3.67;;;;;;;;;;356084;148;866736;-60
2021/05/15 04:11:40;;;;;;;3.93;3.45;;;;;;;;;;355584;150;859895;-61
2021/05/15 04:14:01;;;;;;;5.89;3.13;;;;;;;;;;354719;148;857285;-61
2021/05/15 04:15:10;;;;;;;3.64;3.10;;;;;;;;;;357738;147;858820;-61
2021/05/15 04:17:28;;;;;;;3.65;2.96;;;;;;;;;;356430;148;857669;-61
2021/05/15 04:18:30;;;;;;;5.49;3.45;;;;;;;;;;355468;148;856195;-61
2021/05/15 04:19:32;;;;;;;5.06;3.37;;;;;;;;;;356079;148;859036;-61
2021/05/15 04:20:35;;;;;;;4.24;3.12;;;;;;;;;;356134;148;857243;-61
2021/05/15 04:21:36;;;;;;;4.68;3.63;;;;;;;;;;355573;148;857871;-61
2021/05/15 04:22:38;;;;;;;5.57;3.63;;;;;;;;;;357618;148;857257;-60
2021/05/15 04:23:39;;;;;;;5.32;3.50;;;;;;;;;;357314;149;857369;-60
2021/05/15 04:24:41;;;;;;;4.62;3.45;;;;;;;;;;355922;148;866586;-60
2021/05/15 04:25:43;;;;;;;4.72;3.27;;;;;;;;;;356626;148;857933;-60
2021/05/15 04:26:45;;;;;;;4.09;3.23;;;;;;;;;;356274;150;859342;-60
2021/05/15 04:27:50;;;;;;;4.44;3.06;;;;;;;;;;354495;149;866448;-60
2021/05/15 04:28:52;;;;;;;4.11;3.42;;;;;;;;;;356482;149;857353;-60
2021/05/15 04:29:55;;;;;;;5.01;3.21;;;;;;;;;;354909;150;859113;-60
2021/05/15 04:30:57;;;;;;;4.89;3.55;;;;;;;;;;353410;149;867583;-61
2021/05/15 04:31:58;;;;;;;4.85;3.89;;;;;;;;;;354982;150;857376;-60
2021/05/15 04:33:03;;;;;;;4.15;3.43;;;;;;;;;;354230;148;857426;-61
2021/05/15 04:34:05;;;;;;;4.62;3.14;;;;;;;;;;355263;148;859170;-60
2021/05/15 04:35:07;;;;;;;5.61;3.40;;;;;;;;;;356293;148;857849;-60
2021/05/15 04:36:09;;;;;;;4.10;3.26;;;;;;;;;;357059;148;864873;-61
2021/05/15 04:37:11;;;;;;;4.15;2.90;;;;;;;;;;353671;148;858994;-61
2021/05/15 04:38:12;;;;;;;5.54;3.09;;;;;;;;;;353529;148;857390;-60
2021/05/15 04:39:14;;;;;;;4.85;3.58;;;;;;;;;;355231;148;857399;-61
2021/05/15 04:40:18;;;;;;;4.79;2.98;;;;;;;;;;356236;149;865027;-61
2021/05/15 04:41:20;;;;;;;3.83;2.94;;;;;;;;;;356896;150;860437;-60
2021/05/15 04:42:22;;;;;;;3.89;2.55;;;;;;;;;;355206;148;857845;-59
2021/05/15 04:43:23;;;;;;;4.79;3.44;;;;;;;;;;355105;150;856894;-60
2021/05/15 04:44:25;;;;;;;4.29;3.14;;;;;;;;;;354909;150;858464;-60
2021/05/15 04:45:28;;;;;;;4.19;2.89;;;;;;;;;;355360;149;857751;-60
2021/05/15 04:46:31;;;;;;;3.92;2.62;;;;;;;;;;355699;150;857301;-60
2021/05/15 04:47:32;;;;;;;3.62;3.17;;;;;;;;;;354871;149;858625;-61
2021/05/15 04:48:37;;;;;;;5.02;2.56;;;;;;;;;;355120;150;857348;-61
2021/05/15 04:49:37;;;;;;;4.10;2.86;;;;;;;;;;355921;150;857173;-61
2021/05/15 04:50:40;;;;;;;3.13;2.77;;;;;;;;;;355714;150;858353;-60
2021/05/15 04:51:41;;;;;;;2.99;2.42;;;;;;;;;;356083;148;857382;-60
2021/05/15 04:52:43;;;;;;;6.16;2.80;;;;;;;;;;355455;150;859088;-60
2021/05/15 04:53:45;;;;;;;4.19;2.49;;;;;;;;;;354222;148;865880;-60
2021/05/15 04:54:47;;;;;;;4.33;2.91;;;;;;;;;;357289;150;858667;-60
2021/05/15 04:55:48;;;;;;;4.70;3.16;;;;;;;;;;356262;149;857338;-60
2021/05/15 04:56:51;;;;;;;2.65;2.09;;;;;;;;;;355069;148;857289;-61
2021/05/15 04:57:53;;;;;;;3.30;2.88;;;;;;;;;;356193;148;857222;-61
2021/05/15 04:58:55;;;;;;;4.08;3.04;;;;;;;;;;355855;150;857332;-60
2021/05/15 04:59:56;;;;;;;3.95;3.25;;;;;;;;;;355230;148;859496;-60
2021/05/15 05:00:58;;;;;;;4.45;2.95;;;;;;;;;;355181;149;859101;-60
2021/05/15 05:02:00;;;;;;;3.54;2.84;;;;;;;;;;356372;148;865845;-61
2021/05/15 05:03:01;;;;;;;5.11;2.90;;;;;;;;;;356573;148;866732;-60
2021/05/15 05:04:07;;;;;;;4.93;3.04;;;;;;;;;;354056;150;857444;-60
2021/05/15 05:05:07;;;;;;;6.64;2.91;;;;;;;;;;354845;148;859113;-61
2021/05/15 05:06:10;;;;;;;5.06;2.98;;;;;;;;;;356306;150;865327;-61
2021/05/15 05:07:11;;;;;;;4.36;3.09;;;;;;;;;;356423;150;856249;-60
2021/05/15 05:08:13;;;;;;;3.22;2.92;;;;;;;;;;349403;151;863665;-61
2021/05/15 05:09:15;;;;;;;4.75;2.94;;;;;;;;;;349755;150;864106;-60
2021/05/15 05:10:19;;;;;;;3.56;2.49;;;;;;;;;;355224;150;863882;-60
2021/05/15 05:11:21;;;;;;;5.66;3.21;;;;;;;;;;356364;150;857025;-60
2021/05/15 05:12:22;;;;;;;4.64;3.02;;;;;;;;;;357615;149;856991;-60
2021/05/15 05:13:24;;;;;;;4.64;2.90;;;;;;;;;;356044;148;856612;-60
2021/05/15 05:14:25;;;;;;;5.24;2.96;;;;;;;;;;357112;150;856504;-60
2021/05/15 05:15:27;;;;;;;3.62;2.95;;;;;;;;;;356716;148;856502;-61
2021/05/15 05:16:29;;;;;;;6.76;2.87;;;;;;;;;;354361;148;863784;-61
2021/05/15 05:17:31;;;;;;;4.34;2.93;;;;;;;;;;357859;150;856363;-61
2021/05/15 05:18:32;;;;;;;4.77;3.04;;;;;;;;;;351194;153;863987;-60
2021/05/15 05:19:34;;;;;;;3.02;2.40;;;;;;;;;;349289;151;857349;-60
2021/05/15 05:20:37;;;;;;;4.37;3.27;;;;;;;;;;357244;149;856503;-60
2021/05/15 05:21:39;;;;;;;5.05;3.34;;;;;;;;;;347483;151;864559;-60
2021/05/15 05:24:26;;;;;;;3.16;2.68;;;;;;;16.17;59.69;99118.76;370452;142;882267;-60
2021/05/15 05:25:28;;;;;;;4.29;3.17;;;;;;;16.06;59.93;99118.38;362669;144;859463;-60
2021/05/15 05:26:35;;;;;;;2.78;2.51;;;;;;;16.07;59.91;99122.70;364022;145;864935;-60
2021/05/15 05:27:36;;;;;;;4.23;2.62;;;;;;;16.11;59.55;99115.55;362474;144;857321;-60
2021/05/15 05:28:39;;;;;;;3.35;2.78;;;;;;;16.10;59.61;99117.34;360775;147;864899;-60
2021/05/15 05:29:40;;;;;;;4.04;2.83;;;;;;;;;;362886;147;866481;-61
2021/05/15 05:30:42;;;;;;;5.58;2.99;;;;;;;;;;361336;144;857850;-60
2021/05/15 05:31:44;;;;;;;4.41;3.11;;;;;;;;;;362723;147;857449;-61
2021/05/15 05:32:46;;;;;;;3.51;3.01;;;;;;;;;;361269;147;864773;-61
2021/05/15 05:33:48;;;;;;;5.03;2.85;;;;;;;;;;361332;144;859882;-61
2021/05/15 05:34:49;;;;;;;5.36;2.88;;;;;;;;;;362843;147;858782;-61
2021/05/15 05:35:51;;;;;;;3.99;2.68;;;;;;;;;;362209;144;857962;-61
2021/05/15 05:36:53;;;;;;;4.17;3.17;;;;;;;;;;350195;150;857239;-61
2021/05/15 05:37:54;;;;;;;5.51;3.41;;;;;;;;;;362554;144;857324;-61
2021/05/15 05:38:56;;;;;;;3.71;3.09;;;;;;;;;;361617;144;865739;-60
2021/05/15 05:39:58;;;;;;;5.16;3.18;;;;;;;;;;361870;144;858793;-61
2021/05/15 05:41:00;;;;;;;4.05;2.78;;;;;;;;;;362434;147;865542;-61
2021/05/15 05:42:01;;;;;;;4.81;3.16;;;;;;;;;;360869;146;860209;-61
2021/05/15 05:43:03;;;;;;;5.70;3.04;;;;;;;;;;361562;147;864911;-61
2021/05/15 05:44:05;;;;;;;5.51;2.59;;;;;;;;;;363858;147;857387;-60
2021/05/15 05:45:07;;;;;;;3.41;2.69;;;;;;;;;;360621;147;866159;-60
2021/05/15 05:46:10;;;;;;;4.04;2.78;;;;;;;;;;360917;147;858517;-61
2021/05/15 05:47:12;;;;;;;2.90;2.30;;;;;;;;;;358999;150;857535;-60
2021/05/15 05:48:13;;;;;;;3.82;3.14;;;;;;;;;;360575;146;865023;-61
2021/05/15 05:49:15;;;;;;;4.85;3.46;;;;;;;;;;360713;147;857514;-61
2021/05/15 05:50:17;;;;;;;5.14;3.20;;;;;;;;;;361106;147;857470;-61
2021/05/15 05:51:19;;;;;;;7.52;3.52;;;;;;;;;;359069;146;857509;-61
2021/05/15 05:52:20;;;;;;;3.85;2.86;;;;;;;;;;360032;146;859188;-61
2021/05/15 05:53:22;;;;;;;4.75;3.04;;;;;;;;;;361588;147;859294;-61
2021/05/15 05:54:24;;;;;;;5.75;3.56;;;;;;;;;;359766;146;858804;-61
2021/05/15 05:55:26;;;;;;;5.54;3.59;;;;;;;;;;359246;147;858522;-61
2021/05/15 05:56:29;;;;;;;4.89;3.14;;;;;;;;;;360039;147;857395;-60
2021/05/15 05:57:30;;;;;;;3.67;3.20;;;;;;;;;;361147;147;864882;-61
2021/05/15 05:58:32;;;;;;;6.55;3.64;;;;;;;;;;362151;147;866601;-60
2021/05/15 05:59:34;;;;;;;4.65;3.20;;;;;;;;;;361900;146;865410;-61
2021/05/15 06:00:36;;;;;;;6.99;3.57;;;;;;;;;;359891;147;857953;-61
2021/05/15 06:01:38;;;;;;;4.48;3.21;;;;;;;;;;359351;147;858762;-59
2021/05/15 06:02:42;;;;;;;5.75;3.52;;;;;;;;;;362156;147;863338;-59
2021/05/15 06:03:43;;;;;;;6.33;3.49;;;;;;;;;;361878;147;857455;-60
2021/05/15 06:04:45;;;;;;;7.14;3.41;;;;;;;;;;359795;147;857504;-60
2021/05/15 06:05:47;;;;;;;4.48;3.30;;;;;;;;;;361802;146;866675;-60
2021/05/15 06:06:48;;;;;;;8.14;3.66;;;;;;;;;;363499;147;866642;-61
2021/05/15 06:07:50;;;;;;;6.00;3.66;;;;;;;;;;349865;151;865955;-60